createdAt,value
2023-04-27T00:01:43.816Z,3.72
2023-04-27T00:04:11.476Z,3.03
2023-04-27T00:06:38.970Z,3.30
2023-04-27T00:09:06.774Z,3.97
2023-04-27T00:11:34.380Z,3.75
2023-04-27T00:14:01.699Z,4.38
2023-04-27T00:16:28.924Z,3.65
2023-04-27T00:18:56.126Z,4.00
2023-04-27T00:21:23.424Z,3.80
2023-04-27T00:23:50.794Z,3.70
2023-04-27T00:26:18.081Z,3.72
2023-04-27T00:28:48.820Z,3.67
2023-04-27T00:31:16.135Z,3.58
2023-04-27T00:33:43.376Z,3.47
2023-04-27T00:36:10.869Z,3.80
2023-04-27T00:38:38.197Z,3.47
2023-04-27T00:41:07.447Z,3.50
2023-04-27T00:43:43.635Z,4.03
2023-04-27T00:46:13.311Z,4.00
2023-04-27T00:48:41.658Z,3.40
2023-04-27T00:51:09.120Z,3.72
2023-04-27T00:53:37.056Z,3.33
2023-04-27T00:56:05.640Z,3.63
2023-04-27T00:58:33.198Z,3.63
2023-04-27T01:01:01.111Z,3.83
2023-04-27T01:03:28.713Z,3.50
2023-04-27T01:05:56.949Z,3.87
2023-04-27T01:08:24.632Z,3.28
2023-04-27T01:10:52.024Z,3.30
2023-04-27T01:13:19.423Z,4.17
2023-04-27T01:15:46.678Z,4.37
2023-04-27T01:18:13.887Z,3.70
2023-04-27T01:20:42.194Z,4.73
2023-04-27T01:23:16.619Z,4.33
2023-04-27T01:25:44.734Z,4.10
2023-04-27T01:28:12.618Z,3.67
2023-04-27T01:30:39.909Z,4.70
2023-04-27T01:33:07.238Z,4.20
2023-04-27T01:35:34.624Z,4.17
2023-04-27T01:38:02.712Z,4.33
2023-04-27T01:40:29.990Z,4.73
2023-04-27T01:42:57.273Z,4.73
2023-04-27T01:45:25.081Z,4.13
2023-04-27T01:47:53.471Z,4.53
2023-04-27T01:50:21.717Z,4.70
2023-04-27T01:52:48.985Z,5.37
2023-04-27T01:55:16.315Z,5.50
2023-04-27T01:57:43.607Z,4.45
2023-04-27T02:00:12.525Z,4.40
2023-04-27T02:02:51.112Z,4.30
2023-04-27T02:05:19.219Z,4.93
2023-04-27T02:07:47.399Z,4.87
2023-04-27T02:10:14.769Z,4.77
2023-04-27T02:12:42.048Z,4.50
2023-04-27T02:15:09.893Z,4.63
2023-04-27T02:17:38.376Z,4.67
2023-04-27T02:20:07.649Z,5.07
2023-04-27T02:22:35.491Z,4.23
2023-04-27T02:25:03.080Z,5.07
2023-04-27T02:27:30.579Z,5.03
2023-04-27T02:29:58.590Z,4.93
2023-04-27T02:32:27.116Z,4.53
2023-04-27T02:34:55.362Z,4.63
2023-04-27T02:37:22.870Z,6.10
2023-04-27T02:39:50.166Z,5.50
2023-04-27T02:42:17.505Z,4.50
2023-04-27T02:44:45.088Z,5.00
2023-04-27T02:47:12.661Z,5.00
2023-04-27T02:49:40.148Z,4.20
2023-04-27T02:52:07.880Z,3.80
2023-04-27T02:54:35.296Z,4.43
2023-04-27T02:57:02.565Z,4.17
2023-04-27T02:59:29.769Z,4.07
2023-04-27T03:01:57.046Z,4.33
2023-04-27T03:04:24.417Z,4.63
2023-04-27T03:06:51.697Z,4.80
2023-04-27T03:09:18.916Z,4.47
2023-04-27T03:11:46.384Z,4.90
2023-04-27T03:14:13.726Z,4.53
2023-04-27T03:16:40.953Z,4.53
2023-04-27T03:19:08.440Z,4.73
2023-04-27T03:21:36.363Z,4.30
2023-04-27T03:24:03.886Z,4.17
2023-04-27T03:26:31.648Z,4.20
2023-04-27T03:28:58.886Z,4.43
2023-04-27T03:31:29.051Z,4.10
2023-04-27T03:33:57.096Z,4.30
2023-04-27T03:36:24.407Z,3.80
2023-04-27T03:38:51.525Z,4.57
2023-04-27T03:41:19.123Z,4.17
2023-04-27T03:43:47.560Z,5.20
2023-04-27T03:46:14.817Z,4.37
2023-04-27T03:48:43.813Z,4.70
2023-04-27T03:51:11.068Z,4.70
2023-04-27T03:53:39.000Z,4.63
2023-04-27T03:56:07.539Z,4.40
2023-04-27T03:58:34.765Z,4.80
2023-04-27T04:01:22.017Z,4.70
2023-04-27T04:03:51.715Z,4.20
2023-04-27T04:06:19.258Z,4.27
2023-04-27T04:08:46.486Z,5.07
2023-04-27T04:11:14.078Z,5.20
2023-04-27T04:13:42.127Z,4.50
2023-04-27T04:16:09.917Z,5.57
2023-04-27T04:18:37.567Z,5.67
2023-04-27T04:21:06.504Z,4.77
2023-04-27T04:23:33.916Z,4.13
2023-04-27T04:26:02.205Z,5.07
2023-04-27T04:28:33.539Z,4.97
2023-04-27T04:31:05.822Z,4.70
2023-04-27T04:33:33.692Z,5.30
2023-04-27T04:36:04.347Z,4.33
2023-04-27T04:38:32.892Z,5.40
2023-04-27T04:41:01.065Z,4.43
2023-04-27T04:43:28.474Z,5.23
2023-04-27T04:45:55.825Z,5.07
2023-04-27T04:48:24.102Z,4.70
2023-04-27T04:50:51.328Z,5.10
2023-04-27T04:53:18.726Z,5.13
2023-04-27T04:55:46.249Z,5.13
2023-04-27T04:58:13.793Z,4.77
2023-04-27T05:00:42.285Z,6.00
2023-04-27T05:03:09.710Z,5.03
2023-04-27T05:05:37.401Z,6.00
2023-04-27T05:08:04.951Z,4.97
2023-04-27T05:10:32.274Z,5.30
2023-04-27T05:12:59.473Z,6.17
2023-04-27T05:15:26.681Z,5.53
2023-04-27T05:17:54.375Z,5.80
2023-04-27T05:20:22.159Z,6.93
2023-04-27T05:22:49.355Z,6.03
2023-04-27T05:25:17.970Z,5.37
2023-04-27T05:27:45.298Z,5.37
2023-04-27T05:30:13.393Z,5.57
2023-04-27T05:32:40.704Z,6.40
2023-04-27T05:35:08.251Z,5.67
2023-04-27T05:37:35.656Z,6.37
2023-04-27T05:40:04.164Z,5.90
2023-04-27T05:42:32.202Z,6.13
2023-04-27T05:44:59.501Z,5.87
2023-04-27T05:47:26.772Z,6.33
2023-04-27T05:49:54.176Z,6.83
2023-04-27T05:52:21.978Z,6.13
2023-04-27T05:54:50.920Z,6.70
2023-04-27T05:57:18.276Z,7.10
2023-04-27T05:59:45.476Z,6.63
2023-04-27T06:02:12.733Z,6.10
2023-04-27T06:04:40.472Z,6.50
2023-04-27T06:07:12.174Z,6.17
2023-04-27T06:09:39.612Z,6.83
2023-04-27T06:12:07.890Z,5.40
2023-04-27T06:14:37.048Z,6.40
2023-04-27T06:17:04.818Z,5.87
2023-04-27T06:19:32.047Z,6.60
2023-04-27T06:21:59.275Z,6.53
2023-04-27T06:24:26.494Z,5.70
2023-04-27T06:26:54.477Z,6.93
2023-04-27T06:29:21.723Z,6.17
2023-04-27T06:31:49.394Z,5.87
2023-04-27T06:34:16.984Z,6.23
2023-04-27T06:36:44.193Z,5.60
2023-04-27T06:39:11.830Z,6.80
2023-04-27T06:41:39.172Z,6.70
2023-04-27T06:44:16.997Z,6.87
2023-04-27T06:46:44.309Z,6.23
2023-04-27T06:49:11.795Z,6.23
2023-04-27T06:51:39.195Z,6.23
2023-04-27T06:54:07.583Z,6.83
2023-04-27T06:56:34.797Z,6.10
2023-04-27T06:59:02.129Z,6.80
2023-04-27T07:01:29.460Z,7.00
2023-04-27T07:03:57.336Z,6.10
2023-04-27T07:06:25.979Z,6.75
2023-04-27T07:08:53.255Z,6.33
2023-04-27T07:11:20.602Z,6.57
2023-04-27T07:13:47.806Z,6.37
2023-04-27T07:16:16.178Z,5.40
2023-04-27T07:18:44.053Z,6.17
2023-04-27T07:21:11.623Z,6.00
2023-04-27T07:23:41.228Z,6.43
2023-04-27T07:26:09.958Z,5.90
2023-04-27T07:28:38.396Z,6.15
2023-04-27T07:31:06.761Z,6.35
2023-04-27T07:33:35.058Z,6.20
2023-04-27T07:36:02.713Z,6.55
2023-04-27T07:38:31.267Z,6.15
2023-04-27T07:41:01.626Z,6.18
2023-04-27T07:43:29.750Z,6.35
2023-04-27T07:45:58.421Z,6.10
2023-04-27T07:48:27.055Z,6.35
2023-04-27T07:50:54.733Z,6.97
2023-04-27T07:53:22.038Z,6.43
2023-04-27T07:55:49.333Z,6.32
2023-04-27T07:58:16.565Z,6.32
2023-04-27T08:00:43.974Z,7.07
2023-04-27T08:03:12.069Z,6.43
2023-04-27T08:05:39.644Z,6.47
2023-04-27T08:08:07.539Z,7.40
2023-04-27T08:10:35.606Z,6.40
2023-04-27T08:13:02.873Z,7.13
2023-04-27T08:15:30.405Z,6.60
2023-04-27T08:17:57.813Z,7.45
2023-04-27T08:20:25.130Z,6.50
2023-04-27T08:22:52.475Z,7.47
2023-04-27T08:25:19.978Z,6.05
2023-04-27T08:27:47.367Z,5.32
2023-04-27T08:30:17.600Z,6.00
2023-04-27T08:32:44.963Z,5.20
2023-04-27T08:35:13.381Z,6.60
2023-04-27T08:37:40.956Z,6.28
2023-04-27T08:40:11.334Z,6.13
2023-04-27T08:42:41.972Z,6.18
2023-04-27T08:45:09.740Z,5.80
2023-04-27T08:47:43.446Z,6.30
2023-04-27T08:50:12.722Z,5.82
2023-04-27T08:52:40.430Z,7.03
2023-04-27T08:55:08.404Z,6.40
2023-04-27T08:57:35.811Z,6.88
2023-04-27T09:00:12.311Z,6.85
2023-04-27T09:02:46.754Z,5.93
2023-04-27T09:05:21.875Z,5.97
2023-04-27T09:07:58.351Z,6.40
2023-04-27T09:10:25.808Z,6.35
2023-04-27T09:13:00.992Z,6.07
2023-04-27T09:15:29.338Z,5.60
2023-04-27T09:17:57.690Z,6.10
2023-04-27T09:20:27.046Z,5.95
2023-04-27T09:22:55.678Z,6.13
2023-04-27T09:25:31.439Z,6.13
2023-04-27T09:28:00.523Z,6.50
2023-04-27T09:30:29.421Z,6.75
2023-04-27T09:33:01.783Z,6.15
2023-04-27T09:35:33.350Z,7.07
2023-04-27T09:38:01.103Z,7.15
2023-04-27T09:40:31.214Z,5.95
2023-04-27T09:43:03.452Z,5.80
2023-04-27T09:45:32.747Z,6.60
2023-04-27T09:48:01.613Z,6.10
2023-04-27T09:50:28.970Z,6.15
2023-04-27T09:52:57.116Z,6.15
2023-04-27T09:55:45.987Z,7.00
2023-04-27T09:58:44.390Z,6.22
2023-04-27T10:01:26.995Z,6.00
2023-04-27T10:04:22.332Z,6.30
2023-04-27T10:07:04.561Z,5.78
2023-04-27T10:09:41.629Z,6.20
2023-04-27T10:12:27.922Z,6.68
2023-04-27T10:15:00.702Z,6.43
2023-04-27T10:17:33.565Z,6.95
2023-04-27T10:20:03.183Z,6.32
2023-04-27T10:22:53.119Z,6.45
2023-04-27T10:25:29.863Z,6.28
2023-04-27T10:28:01.165Z,7.05
2023-04-27T10:30:34.352Z,6.05
2023-04-27T10:33:11.903Z,6.47
2023-04-27T10:35:45.229Z,6.60
2023-04-27T10:38:17.144Z,6.65
2023-04-27T10:40:46.513Z,7.55
2023-04-27T10:43:16.219Z,6.70
2023-04-27T10:45:44.533Z,6.05
2023-04-27T10:48:15.883Z,6.55
2023-04-27T10:50:44.863Z,5.57
2023-04-27T10:53:12.478Z,5.78
2023-04-27T10:55:39.909Z,6.50
2023-04-27T10:58:07.215Z,7.22
2023-04-27T11:00:38.748Z,6.47
2023-04-27T11:03:16.597Z,5.78
2023-04-27T11:05:46.330Z,6.32
2023-04-27T11:08:18.500Z,6.90
2023-04-27T11:10:49.932Z,5.57
2023-04-27T11:13:25.751Z,6.15
2023-04-27T11:15:55.521Z,6.15
2023-04-27T11:18:29.945Z,6.15
2023-04-27T11:21:08.776Z,6.00
2023-04-27T11:23:39.868Z,5.60
2023-04-27T11:26:10.960Z,6.35
2023-04-27T11:28:38.909Z,7.60
2023-04-27T11:31:06.861Z,5.80
2023-04-27T11:33:35.943Z,5.43
2023-04-27T11:36:03.629Z,6.45
2023-04-27T11:38:34.250Z,5.93
2023-04-27T11:41:04.996Z,6.35
2023-04-27T11:43:33.114Z,6.97
2023-04-27T11:46:11.161Z,6.07
2023-04-27T11:48:39.248Z,5.43
2023-04-27T11:51:10.253Z,6.55
2023-04-27T11:53:39.377Z,6.25
2023-04-27T11:56:10.751Z,6.60
2023-04-27T11:58:39.315Z,6.10
2023-04-27T12:01:08.075Z,6.75
2023-04-27T12:03:35.719Z,6.18
2023-04-27T12:06:16.598Z,5.65
2023-04-27T12:08:51.149Z,5.85
2023-04-27T12:11:18.803Z,6.35
2023-04-27T12:13:47.267Z,6.28
2023-04-27T12:16:14.670Z,6.18
2023-04-27T12:18:42.137Z,7.32
2023-04-27T12:21:10.135Z,6.15
2023-04-27T12:23:37.495Z,6.25
2023-04-27T12:26:05.196Z,6.63
2023-04-27T12:28:32.570Z,6.00
2023-04-27T12:30:59.876Z,6.07
2023-04-27T12:33:27.174Z,5.75
2023-04-27T12:35:54.441Z,7.35
2023-04-27T12:38:22.555Z,6.82
2023-04-27T12:40:49.886Z,7.15
2023-04-27T12:43:17.330Z,7.38
2023-04-27T12:45:44.665Z,5.78
2023-04-27T12:48:12.037Z,6.07
2023-04-27T12:50:39.400Z,6.53
2023-04-27T12:53:06.941Z,6.47
2023-04-27T12:55:34.712Z,5.72
2023-04-27T12:58:03.289Z,6.38
2023-04-27T13:00:31.240Z,6.03
2023-04-27T13:02:58.702Z,6.18
2023-04-27T13:05:26.459Z,6.45
2023-04-27T13:07:53.861Z,5.88
2023-04-27T13:10:23.714Z,6.32
2023-04-27T13:12:51.044Z,5.80
2023-04-27T13:15:18.335Z,6.05
2023-04-27T13:17:45.564Z,5.70
2023-04-27T13:20:13.071Z,6.88
2023-04-27T13:22:40.853Z,5.93
2023-04-27T13:25:09.587Z,5.80
2023-04-27T13:27:36.886Z,6.65
2023-04-27T13:30:05.384Z,6.22
2023-04-27T13:32:32.894Z,5.70
2023-04-27T13:35:00.255Z,5.85
2023-04-27T13:37:27.452Z,5.78
2023-04-27T13:39:54.648Z,5.95
2023-04-27T13:42:23.962Z,5.70
2023-04-27T13:44:51.166Z,6.53
2023-04-27T13:47:18.496Z,5.82
2023-04-27T13:49:45.806Z,6.18
2023-04-27T13:52:14.058Z,6.32
2023-04-27T13:54:41.551Z,4.85
2023-04-27T13:57:08.832Z,5.88
2023-04-27T13:59:36.087Z,5.32
2023-04-27T14:02:03.612Z,5.72
2023-04-27T14:04:30.980Z,6.60
2023-04-27T14:06:58.350Z,5.82
2023-04-27T14:09:27.012Z,5.32
2023-04-27T14:11:57.270Z,6.40
2023-04-27T14:14:24.731Z,5.57
2023-04-27T14:16:53.576Z,5.85
2023-04-27T14:19:21.061Z,5.30
2023-04-27T14:21:49.789Z,5.80
2023-04-27T14:24:17.244Z,5.70
2023-04-27T14:26:47.404Z,4.85
2023-04-27T14:29:15.532Z,5.15
2023-04-27T14:31:43.623Z,6.63
2023-04-27T14:34:11.247Z,5.82
2023-04-27T14:36:38.488Z,5.00
2023-04-27T14:39:06.772Z,5.93
2023-04-27T14:41:35.444Z,5.68
2023-04-27T14:44:07.435Z,5.88
2023-04-27T14:46:35.139Z,5.43
2023-04-27T14:49:02.534Z,5.88
2023-04-27T14:51:29.924Z,5.03
2023-04-27T14:53:57.341Z,6.10
2023-04-27T14:56:25.111Z,5.05
2023-04-27T14:58:52.375Z,5.28
2023-04-27T15:01:19.673Z,5.90
2023-04-27T15:03:47.096Z,5.28
2023-04-27T15:06:14.579Z,5.38
2023-04-27T15:08:41.822Z,5.78
2023-04-27T15:11:09.060Z,5.28
2023-04-27T15:13:36.270Z,4.63
2023-04-27T15:16:05.051Z,5.60
2023-04-27T15:18:32.544Z,5.72
2023-04-27T15:21:00.147Z,5.90
2023-04-27T15:23:27.884Z,5.40
2023-04-27T15:25:57.324Z,5.75
2023-04-27T15:28:24.881Z,5.18
2023-04-27T15:30:52.445Z,4.05
2023-04-27T15:33:20.344Z,4.93
2023-04-27T15:35:47.691Z,4.30
2023-04-27T15:38:15.662Z,4.40
2023-04-27T15:40:42.917Z,4.30
2023-04-27T15:43:10.171Z,4.20
2023-04-27T15:45:37.782Z,4.53
2023-04-27T15:48:05.239Z,4.20
2023-04-27T15:50:32.746Z,4.00
2023-04-27T15:53:00.100Z,3.53
2023-04-27T15:55:27.344Z,4.20
2023-04-27T15:57:56.129Z,4.00
2023-04-27T16:00:24.638Z,8.18
2023-04-27T16:02:52.318Z,8.95
2023-04-27T16:05:19.670Z,5.43
2023-04-27T16:07:47.011Z,4.00
2023-04-27T16:10:14.370Z,5.60
2023-04-27T16:12:41.628Z,5.45
2023-04-27T16:15:11.379Z,4.55
2023-04-27T16:17:39.253Z,4.50
2023-04-27T16:20:07.734Z,4.38
2023-04-27T16:22:36.135Z,4.43
2023-04-27T16:25:06.594Z,4.55
2023-04-27T16:27:34.324Z,3.85
2023-04-27T16:30:01.690Z,4.70
2023-04-27T16:32:29.098Z,4.03
2023-04-27T16:34:56.450Z,3.92
2023-04-27T16:37:23.795Z,3.70
2023-04-27T16:39:51.140Z,4.20
2023-04-27T16:42:21.465Z,3.40
2023-04-27T16:44:48.737Z,5.15
2023-04-27T16:47:16.058Z,4.40
2023-04-27T16:49:46.239Z,4.65
2023-04-27T16:52:13.530Z,4.97
2023-04-27T16:54:40.889Z,4.78
2023-04-27T16:57:08.346Z,3.45
2023-04-27T16:59:35.886Z,3.63
2023-04-27T17:02:12.810Z,3.60
2023-04-27T17:04:44.105Z,4.40
2023-04-27T17:07:11.772Z,3.70
2023-04-27T17:09:39.891Z,4.10
2023-04-27T17:12:12.061Z,3.58
2023-04-27T17:14:39.383Z,4.13
2023-04-27T17:17:06.583Z,4.13
2023-04-27T17:19:34.088Z,3.88
2023-04-27T17:22:01.532Z,4.07
2023-04-27T17:24:28.788Z,3.60
2023-04-27T17:26:56.051Z,3.67
2023-04-27T17:29:23.305Z,3.83
2023-04-27T17:31:50.871Z,4.00
2023-04-27T17:34:18.224Z,4.15
2023-04-27T17:36:46.215Z,3.47
2023-04-27T17:39:14.577Z,2.88
2023-04-27T17:41:42.238Z,4.80
2023-04-27T17:44:12.033Z,3.78
2023-04-27T17:46:44.738Z,4.20
2023-04-27T17:49:12.189Z,3.10
2023-04-27T17:51:39.617Z,3.53
2023-04-27T17:54:06.834Z,4.75
2023-04-27T17:56:34.035Z,3.20
2023-04-27T17:59:01.522Z,3.95
2023-04-27T18:01:28.837Z,3.42
2023-04-27T18:03:56.662Z,3.38
2023-04-27T18:06:24.065Z,2.55
2023-04-27T18:08:51.298Z,3.30
2023-04-27T18:11:18.702Z,3.83
2023-04-27T18:13:47.024Z,3.10
2023-04-27T18:16:14.422Z,3.45
2023-04-27T18:18:41.830Z,3.25
2023-04-27T18:21:09.098Z,2.97
2023-04-27T18:23:41.216Z,3.20
2023-04-27T18:26:10.958Z,3.25
2023-04-27T18:28:40.237Z,3.08
2023-04-27T18:31:15.552Z,3.30
2023-04-27T18:33:45.321Z,3.17
2023-04-27T18:36:15.836Z,3.15
2023-04-27T18:38:43.244Z,3.28
2023-04-27T18:41:10.774Z,3.15
2023-04-27T18:43:38.084Z,3.05
2023-04-27T18:46:05.801Z,3.65
2023-04-27T18:48:33.597Z,3.20
2023-04-27T18:51:00.946Z,3.17
2023-04-27T18:53:28.447Z,3.00
2023-04-27T18:55:56.145Z,3.45
2023-04-27T18:58:23.791Z,3.38
2023-04-27T19:00:51.260Z,2.97
2023-04-27T19:03:18.795Z,3.13
2023-04-27T19:05:46.813Z,3.65
2023-04-27T19:08:14.121Z,3.28
2023-04-27T19:10:41.662Z,3.33
2023-04-27T19:13:08.908Z,2.83
2023-04-27T19:15:36.195Z,3.22
2023-04-27T19:18:10.619Z,4.32
2023-04-27T19:20:40.119Z,3.45
2023-04-27T19:23:09.306Z,3.78
2023-04-27T19:25:37.526Z,4.00
2023-04-27T19:28:05.780Z,3.58
2023-04-27T19:30:33.308Z,3.70
2023-04-27T19:33:00.665Z,3.83
2023-04-27T19:35:28.062Z,4.22
2023-04-27T19:37:55.976Z,4.47
2023-04-27T19:40:24.845Z,3.88
2023-04-27T19:42:52.182Z,3.92
2023-04-27T19:45:19.660Z,4.25
2023-04-27T19:47:48.616Z,4.07
2023-04-27T19:50:16.973Z,4.38
2023-04-27T19:52:44.234Z,3.72
2023-04-27T19:55:11.792Z,4.10
2023-04-27T19:57:39.119Z,3.28
2023-04-27T20:00:07.909Z,4.00
2023-04-27T20:02:42.393Z,4.60
2023-04-27T20:05:10.595Z,4.65
2023-04-27T20:07:38.204Z,3.80
2023-04-27T20:10:06.048Z,4.20
2023-04-27T20:12:51.402Z,4.30
2023-04-27T20:15:20.597Z,3.90
2023-04-27T20:17:48.006Z,4.28
2023-04-27T20:20:15.380Z,4.82
2023-04-27T20:22:42.778Z,4.32
2023-04-27T20:25:10.667Z,4.03
2023-04-27T20:27:37.898Z,4.63
2023-04-27T20:30:05.692Z,4.05
2023-04-27T20:32:34.358Z,4.30
2023-04-27T20:35:04.926Z,4.20
2023-04-27T20:37:32.447Z,3.85
2023-04-27T20:40:00.840Z,4.38
2023-04-27T20:42:29.625Z,4.22
2023-04-27T20:44:56.959Z,4.38
2023-04-27T20:47:24.300Z,4.00
2023-04-27T20:49:51.694Z,3.90
2023-04-27T20:52:19.105Z,4.88
2023-04-27T20:54:46.498Z,4.72
2023-04-27T20:57:14.411Z,3.65
2023-04-27T20:59:41.754Z,4.18
2023-04-27T21:02:09.113Z,4.03
2023-04-27T21:04:36.693Z,4.20
2023-04-27T21:07:04.098Z,4.13
2023-04-27T21:09:31.615Z,4.30
2023-04-27T21:11:59.251Z,4.68
2023-04-27T21:14:26.454Z,4.32
2023-04-27T21:16:53.873Z,5.05
2023-04-27T21:19:21.224Z,4.18
2023-04-27T21:21:48.883Z,3.22
2023-04-27T21:24:16.301Z,3.85
2023-04-27T21:26:43.556Z,3.97
2023-04-27T21:29:11.056Z,4.40
2023-04-27T21:31:38.347Z,4.50
2023-04-27T21:34:05.697Z,4.60
2023-04-27T21:36:33.946Z,5.55
2023-04-27T21:39:01.271Z,3.75
2023-04-27T21:41:28.704Z,4.13
2023-04-27T21:43:56.766Z,3.95
2023-04-27T21:46:24.311Z,3.85
2023-04-27T21:48:51.659Z,4.18
2023-04-27T21:51:19.020Z,3.53
2023-04-27T21:53:46.332Z,3.47
2023-04-27T21:56:13.749Z,3.45
2023-04-27T21:58:41.088Z,3.47
2023-04-27T22:01:08.347Z,3.35
2023-04-27T22:03:36.961Z,3.72
2023-04-27T22:06:04.826Z,3.20
2023-04-27T22:08:32.338Z,2.97
2023-04-27T22:10:59.633Z,2.63
2023-04-27T22:13:26.946Z,2.95
2023-04-27T22:15:54.432Z,2.90
2023-04-27T22:18:21.672Z,2.78
2023-04-27T22:20:49.423Z,2.67
2023-04-27T22:23:16.745Z,2.42
2023-04-27T22:25:44.197Z,3.30
2023-04-27T22:28:11.594Z,2.72
2023-04-27T22:30:40.867Z,2.78
2023-04-27T22:33:09.291Z,2.78
2023-04-27T22:35:37.395Z,2.75
2023-04-27T22:38:05.029Z,2.78
2023-04-27T22:40:32.351Z,2.55
2023-04-27T22:42:59.632Z,3.47
2023-04-27T22:45:26.853Z,3.10
2023-04-27T22:47:57.062Z,2.75
2023-04-27T22:50:24.406Z,2.88
2023-04-27T22:52:53.071Z,3.28
2023-04-27T22:55:20.452Z,3.35
2023-04-27T22:57:49.838Z,3.28
2023-04-27T23:00:17.413Z,3.05
2023-04-27T23:02:45.042Z,3.13
2023-04-27T23:05:12.533Z,3.22
2023-04-27T23:07:41.365Z,2.72
2023-04-27T23:10:09.149Z,2.78
2023-04-27T23:12:37.867Z,3.10
2023-04-27T23:15:05.700Z,3.03
2023-04-27T23:17:34.019Z,3.30
2023-04-27T23:20:02.231Z,2.83
2023-04-27T23:22:29.586Z,3.30
2023-04-27T23:24:56.899Z,2.90
2023-04-27T23:27:25.012Z,2.72
2023-04-27T23:29:52.572Z,2.70
2023-04-27T23:32:20.367Z,3.38
2023-04-27T23:34:47.719Z,3.40
2023-04-27T23:37:14.979Z,3.38
2023-04-27T23:39:42.192Z,3.25
2023-04-27T23:42:09.507Z,3.20
2023-04-27T23:44:36.653Z,2.70
2023-04-27T23:47:04.253Z,3.40
2023-04-27T23:49:31.565Z,3.70
2023-04-27T23:51:58.845Z,3.10
2023-04-27T23:54:30.948Z,3.22
2023-04-27T23:56:58.170Z,2.80
2023-04-27T23:59:25.639Z,2.88
